Airfield :







YOU CAN JOIN US ON...

 
LOGIN :

Register | Disclaimer

   EN    FR    IT 

 









Legend :    VFR   Marginal VFR   IFR   Intensive IFR   Very Intensive IFR
Visi :
Ceiling :
>= 8 km
>= 3000ft
5 to 8 km
1000 to 3000 ft
1500m to 5 km
500 to 1000 ft
800 to 1500m
200 to 500 ft
< 800m
< 200 ft
Symbols :   Thunderstorms  Fog  Heavy snow  Heavy precipitations  Wind > 20 kt






- Airport Elevation : 9 ft
- IATA code : SJU


TJSJ - Luis Munoz Marin Int.

CURRENT METAR :
  • 271156Z 27003KT 10SM FEW030 SCT060 29/24 A2991 RMK AO2 SLP127 SHRA DSNT SE T02940244 10294 20267 53007

EXPIRED METARs :
  • 271056Z 22003KT 10SM FEW029 SCT095 27/24 A2990 RMK AO2 SLP124 VCSH NW T02720244
  • 270956Z 00000KT 10SM SCT024 27/24 A2989 RMK AO2 SLP122 T02720244

TAF TJSJ
Valid from the 27 at 12:00 until the 28 at 12:00 UTC


271120Z 2712/2812 VRB03KT P6SM VCSH SCT025
FM271400 05012KT P6SM SCT030
FM272200 08007KT P6SM FEW035 SCT050
TJZS FIR / North America



MET'MAP, your aeronautical weather chart ! - Copyright ORBIFLY December 2007 - Disclaimer

ORBIFLY MET'MAP TEAM :

Programming & Development : Alexandra Zaïnal
Concept & original design : Baudouin d'Aumeries
Assistance for programming : Marc-Olivier Méhu
Technical & hardware support : Manuel Goepfert

Contact : metmap@orbifly.com




SOURCES & CREDITS :

   NOAA